Time;durP1;ratioP1;P1;durP2;ratioP2;P2;SDS_P1;SDS_P2;PMS_P1;PMS_P2;Temp;Humidity;BMP_temperature;BMP_pressure;BME280_temperature;BME280_humidity;BME280_pressure;Samples;Min_cycle;Max_cycle;Signal;HPM_P1;HPM_P2
2023/09/08 00:02:25;;;;;;;11.85;9.60;;;20.10;56.10;;;;;;4985480;28;115063;-79
2023/09/08 00:04:53;;;;;;;12.18;10.55;;;20.20;56.10;;;;;;4983791;28;114686;-79
2023/09/08 00:07:20;;;;;;;12.25;9.38;;;20.20;56.00;;;;;;4984808;28;114212;-79
2023/09/08 00:09:48;;;;;;;12.40;9.27;;;20.10;56.20;;;;;;4985190;28;114396;-80
2023/09/08 00:12:15;;;;;;;10.98;9.73;;;20.00;56.30;;;;;;4985298;28;114869;-79
2023/09/08 00:14:42;;;;;;;12.02;9.65;;;20.10;56.20;;;;;;4984537;28;114660;-79
2023/09/08 00:17:09;;;;;;;11.02;9.05;;;20.10;56.10;;;;;;4983574;28;114572;-79
2023/09/08 00:19:36;;;;;;;11.10;9.18;;;20.10;56.10;;;;;;4984764;28;114405;-78
2023/09/08 00:22:05;;;;;;;13.90;9.07;;;20.10;56.10;;;;;;4983784;28;114854;-78
2023/09/08 00:24:33;;;;;;;10.55;8.73;;;20.20;56.00;;;;;;4983782;28;114570;-78
2023/09/08 00:27:01;;;;;;;12.15;10.02;;;20.20;55.90;;;;;;5017614;28;114359;-79
2023/09/08 00:29:30;;;;;;;13.65;9.45;;;20.20;55.80;;;;;;4967627;28;114402;-79
2023/09/08 00:31:57;;;;;;;11.50;9.18;;;20.10;55.90;;;;;;4967192;28;116519;-79
2023/09/08 00:34:25;;;;;;;14.40;10.82;;;20.00;56.00;;;;;;4983758;28;116092;-79
2023/09/08 00:36:52;;;;;;;11.85;9.27;;;19.90;56.30;;;;;;4984293;28;114610;-78
2023/09/08 00:39:19;;;;;;;14.10;10.88;;;19.90;56.30;;;;;;5017465;28;114414;-79
2023/09/08 00:41:46;;;;;;;11.20;9.20;;;19.90;56.40;;;;;;4984047;28;114989;-78
2023/09/08 00:44:13;;;;;;;11.55;9.30;;;19.80;56.50;;;;;;4984497;28;115302;-79
2023/09/08 00:46:40;;;;;;;14.50;9.38;;;19.80;56.60;;;;;;4986124;28;114338;-79
2023/09/08 00:49:08;;;;;;;14.32;11.02;;;19.80;56.60;;;;;;4970433;28;114650;-79
2023/09/08 00:51:37;;;;;;;10.45;9.35;;;19.80;56.50;;;;;;4983729;28;115071;-79
2023/09/08 00:54:06;;;;;;;12.07;9.75;;;19.80;56.40;;;;;;4983763;28;114575;-79
2023/09/08 00:56:34;;;;;;;13.68;10.25;;;19.90;56.30;;;;;;4984058;28;114828;-79
2023/09/08 00:59:02;;;;;;;16.90;11.93;;;19.80;56.10;;;;;;4984731;28;114233;-79
2023/09/08 01:01:29;;;;;;;15.15;12.15;;;19.80;56.00;;;;;;4966992;28;116082;-79
2023/09/08 01:03:57;;;;;;;14.73;11.10;;;19.80;56.00;;;;;;4984789;28;114971;-79
2023/09/08 01:06:24;;;;;;;14.77;10.63;;;19.80;56.10;;;;;;4985081;28;114113;-79
2023/09/08 01:08:51;;;;;;;12.25;9.48;;;19.80;56.30;;;;;;4984304;28;114308;-79
2023/09/08 01:11:19;;;;;;;16.42;11.52;;;19.70;56.70;;;;;;4984761;28;114852;-79
2023/09/08 01:13:48;;;;;;;13.80;10.60;;;19.80;56.00;;;;;;4983128;28;114671;-79
2023/09/08 01:16:15;;;;;;;15.48;10.52;;;19.80;56.30;;;;;;4985241;28;114253;-79
2023/09/08 01:18:43;;;;;;;15.68;11.00;;;19.80;56.20;;;;;;4983728;28;114359;-79
2023/09/08 01:21:22;;;;;;;13.15;10.05;;;19.80;56.10;;;;;;4982517;28;116676;-79
2023/09/08 01:23:59;;;;;;;13.15;10.80;;;19.80;56.30;;;;;;4984073;28;115380;-79
2023/09/08 01:26:29;;;;;;;12.77;9.98;;;19.80;56.40;;;;;;4984816;28;114164;-79
2023/09/08 01:28:56;;;;;;;18.08;9.93;;;19.70;56.30;;;;;;4984796;28;114387;-79
2023/09/08 01:31:23;;;;;;;13.23;10.52;;;19.80;56.20;;;;;;4983428;28;114989;-79
2023/09/08 01:33:51;;;;;;;13.82;9.52;;;19.80;56.20;;;;;;4982872;28;114603;-79
2023/09/08 01:36:18;;;;;;;15.77;10.38;;;19.70;56.10;;;;;;4967023;28;114611;-79
2023/09/08 01:38:45;;;;;;;12.10;9.75;;;19.80;56.20;;;;;;4984550;28;114440;-79
2023/09/08 01:41:12;;;;;;;12.50;10.20;;;19.80;56.30;;;;;;4983439;28;116159;-79
2023/09/08 01:43:39;;;;;;;13.32;9.63;;;19.80;56.30;;;;;;4983312;28;114676;-79
2023/09/08 01:46:06;;;;;;;14.75;10.70;;;19.80;56.50;;;;;;4982760;28;114363;-79
2023/09/08 01:48:33;;;;;;;12.90;9.38;;;19.80;56.00;;;;;;4984584;28;114486;-79
2023/09/08 01:51:01;;;;;;;13.13;9.70;;;19.80;56.10;;;;;;4998419;28;118354;-79
2023/09/08 01:53:28;;;;;;;12.23;9.40;;;19.80;56.40;;;;;;4983544;28;114635;-79
2023/09/08 01:55:55;;;;;;;14.50;10.65;;;19.80;56.30;;;;;;4982333;28;114447;-79
2023/09/08 01:58:22;;;;;;;12.55;9.63;;;19.80;55.90;;;;;;4982525;28;114196;-80
2023/09/08 02:00:53;;;;;;;14.38;10.45;;;19.80;55.90;;;;;;4983904;28;115085;-79
2023/09/08 02:03:20;;;;;;;13.35;10.35;;;19.80;55.80;;;;;;4983521;28;114872;-79
2023/09/08 02:05:47;;;;;;;11.45;8.75;;;19.80;55.80;;;;;;4984226;28;114185;-79
2023/09/08 02:08:15;;;;;;;13.43;10.55;;;19.80;56.20;;;;;;4966322;28;114528;-79
2023/09/08 02:10:42;;;;;;;14.38;10.05;;;19.80;56.20;;;;;;4983680;28;114986;-79
2023/09/08 02:13:09;;;;;;;12.40;9.63;;;19.80;55.90;;;;;;4984158;28;115357;-80
2023/09/08 02:15:36;;;;;;;14.48;9.70;;;19.80;55.90;;;;;;4983731;28;114241;-80
2023/09/08 02:18:04;;;;;;;14.23;10.50;;;19.70;56.00;;;;;;4982893;28;114387;-79
2023/09/08 02:20:31;;;;;;;14.52;11.02;;;19.70;55.90;;;;;;4981468;28;114944;-79
2023/09/08 02:23:03;;;;;;;12.70;9.40;;;19.60;55.80;;;;;;4983268;28;114618;-80
2023/09/08 02:25:32;;;;;;;;;;;19.60;56.30;;;;;;4999984;28;114331;-80
2023/09/08 02:27:59;;;;;;;13.63;9.85;;;19.50;55.80;;;;;;4983638;28;114673;-80
2023/09/08 02:30:27;;;;;;;12.23;10.20;;;19.50;56.50;;;;;;4983125;28;114971;-78
2023/09/08 02:32:55;;;;;;;16.35;10.90;;;19.50;56.40;;;;;;4981861;28;114642;-79
2023/09/08 02:35:24;;;;;;;12.23;9.50;;;19.50;56.50;;;;;;4982558;28;114562;-78
2023/09/08 02:37:52;;;;;;;15.07;10.48;;;19.50;56.70;;;;;;4966095;28;114391;-79
2023/09/08 02:40:20;;;;;;;11.32;9.18;;;19.50;56.30;;;;;;4982155;28;115127;-79
2023/09/08 02:42:48;;;;;;;11.43;9.00;;;19.60;56.50;;;;;;5015129;28;115200;-78
2023/09/08 02:45:16;;;;;;;10.60;8.93;;;19.60;56.50;;;;;;4977706;28;114190;-79
2023/09/08 02:47:43;;;;;;;13.20;9.45;;;19.60;56.40;;;;;;4989001;28;114300;-79
2023/09/08 02:50:10;;;;;;;12.88;9.85;;;19.60;56.40;;;;;;4965720;28;114923;-79
2023/09/08 02:52:37;;;;;;;10.95;8.80;;;19.70;56.30;;;;;;4981908;28;114712;-79
2023/09/08 02:55:04;;;;;;;12.48;8.80;;;19.60;56.40;;;;;;4982536;28;114256;-79
2023/09/08 02:57:31;;;;;;;14.63;9.88;;;19.70;56.20;;;;;;4983762;28;114276;-79
2023/09/08 02:59:59;;;;;;;13.55;10.20;;;19.70;55.90;;;;;;4982817;28;115078;-79
2023/09/08 03:02:27;;;;;;;10.25;8.45;;;19.70;55.40;;;;;;4948991;28;118419;-79
2023/09/08 03:04:55;;;;;;;12.65;10.40;;;19.70;56.00;;;;;;4982499;28;114262;-79
2023/09/08 03:07:22;;;;;;;10.45;8.60;;;19.60;55.20;;;;;;4983764;28;114294;-79
2023/09/08 03:09:50;;;;;;;11.55;9.13;;;19.60;55.90;;;;;;4983843;28;118540;-79
2023/09/08 03:12:17;;;;;;;14.60;8.77;;;19.50;56.00;;;;;;4985241;28;114566;-79
2023/09/08 03:14:44;;;;;;;11.50;8.63;;;19.50;56.20;;;;;;5002170;28;114283;-79
2023/09/08 03:17:12;;;;;;;10.82;8.73;;;19.40;56.50;;;;;;4985533;28;114294;-79
2023/09/08 03:19:39;;;;;;;10.80;8.23;;;19.40;56.30;;;;;;4986211;28;114842;-79
2023/09/08 03:22:07;;;;;;;11.60;9.20;;;19.40;56.40;;;;;;5017699;28;116094;-79
2023/09/08 03:24:34;;;;;;;9.95;8.13;;;19.40;56.30;;;;;;4986705;28;114266;-79
2023/09/08 03:27:01;;;;;;;12.65;8.68;;;19.50;56.20;;;;;;4986654;28;114371;-78
2023/09/08 03:29:28;;;;;;;12.45;8.98;;;19.60;56.20;;;;;;4984848;28;115526;-79
2023/09/08 03:31:55;;;;;;;11.07;8.88;;;19.60;55.90;;;;;;4984758;28;114594;-78
2023/09/08 03:34:23;;;;;;;11.20;8.60;;;19.60;56.10;;;;;;4985393;28;114252;-79
2023/09/08 03:36:53;;;;;;;10.63;8.43;;;19.60;56.00;;;;;;4985496;28;114272;-78
2023/09/08 03:39:20;;;;;;;10.70;8.23;;;19.60;56.10;;;;;;4984067;28;116932;-78
2023/09/08 03:41:47;;;;;;;10.90;7.75;;;19.60;55.80;;;;;;4985621;28;114601;-78
2023/09/08 03:44:14;;;;;;;11.45;8.48;;;19.60;55.80;;;;;;4985207;28;114362;-79
2023/09/08 03:46:41;;;;;;;11.68;8.70;;;19.60;55.70;;;;;;4985443;28;114234;-78
2023/09/08 03:49:09;;;;;;;10.90;8.13;;;19.70;55.70;;;;;;4985946;28;116210;-78
2023/09/08 03:51:36;;;;;;;9.55;7.70;;;19.70;55.70;;;;;;4984865;28;114698;-78
2023/09/08 03:54:04;;;;;;;10.10;8.35;;;19.70;55.80;;;;;;4986304;28;114101;-78
2023/09/08 03:56:31;;;;;;;13.50;8.52;;;19.60;55.90;;;;;;4985124;28;114100;-79
2023/09/08 03:58:58;;;;;;;11.32;9.68;;;19.60;55.80;;;;;;5016954;28;116459;-78
2023/09/08 04:01:25;;;;;;;11.55;8.45;;;19.60;55.00;;;;;;4985058;28;115261;-79
2023/09/08 04:03:52;;;;;;;10.40;8.55;;;19.60;55.60;;;;;;4985697;28;114213;-78
2023/09/08 04:06:19;;;;;;;10.88;7.85;;;19.60;55.10;;;;;;4984470;28;114429;-78
2023/09/08 04:08:50;;;;;;;11.63;8.27;;;19.50;55.50;;;;;;5017390;28;114910;-78
2023/09/08 04:11:17;;;;;;;11.45;8.82;;;19.60;55.60;;;;;;4983795;28;114701;-79
2023/09/08 04:13:44;;;;;;;11.95;8.98;;;19.50;55.60;;;;;;4968077;28;114315;-78
2023/09/08 04:16:11;;;;;;;11.98;9.18;;;19.50;55.80;;;;;;4985416;28;114684;-78
2023/09/08 04:18:39;;;;;;;11.25;9.10;;;19.60;55.40;;;;;;4985042;28;115501;-78
2023/09/08 04:21:09;;;;;;;11.63;9.10;;;19.60;55.50;;;;;;4984249;28;114813;-79
2023/09/08 04:23:36;;;;;;;9.85;8.27;;;19.60;55.20;;;;;;4984429;28;114228;-79
2023/09/08 04:26:04;;;;;;;13.27;8.98;;;19.60;55.60;;;;;;4985649;28;114565;-78
2023/09/08 04:28:31;;;;;;;10.88;8.93;;;19.60;55.50;;;;;;4983757;28;115017;-80
2023/09/08 04:30:59;;;;;;;11.20;8.32;;;19.60;55.20;;;;;;4983674;28;114671;-79
2023/09/08 04:33:26;;;;;;;10.32;8.32;;;19.60;55.40;;;;;;4984597;28;114383;-80
2023/09/08 04:35:53;;;;;;;9.18;7.93;;;19.70;55.40;;;;;;4984489;28;114044;-80
2023/09/08 04:38:20;;;;;;;11.55;9.25;;;19.70;55.30;;;;;;4984133;28;114908;-79
2023/09/08 04:40:47;;;;;;;14.30;9.38;;;19.70;54.90;;;;;;4992129;28;114534;-78
2023/09/08 04:43:15;;;;;;;12.55;9.10;;;19.80;54.50;;;;;;5001151;28;113968;-79
2023/09/08 04:45:42;;;;;;;12.93;9.73;;;19.80;54.80;;;;;;4951418;28;114360;-79
2023/09/08 04:48:10;;;;;;;11.15;8.32;;;19.80;54.50;;;;;;4983033;28;114860;-79
2023/09/08 04:50:40;;;;;;;9.15;8.13;;;19.80;54.70;;;;;;4983567;28;114695;-79
2023/09/08 04:53:08;;;;;;;12.43;8.75;;;19.90;54.50;;;;;;4968215;28;114492;-79
2023/09/08 04:55:35;;;;;;;11.05;8.85;;;19.90;54.00;;;;;;4984842;28;114394;-80
2023/09/08 04:58:04;;;;;;;12.48;8.63;;;19.90;53.90;;;;;;4983260;28;115641;-79
2023/09/08 05:00:33;;;;;;;13.23;8.20;;;20.00;54.00;;;;;;4967022;28;115523;-78
2023/09/08 05:03:01;;;;;;;16.60;9.65;;;20.10;54.10;;;;;;4984138;28;114354;-78
2023/09/08 05:05:28;;;;;;;11.63;8.32;;;20.20;53.70;;;;;;4984357;28;114394;-79
2023/09/08 05:07:56;;;;;;;12.38;8.63;;;20.20;53.80;;;;;;4983215;28;115015;-80
2023/09/08 05:10:24;;;;;;;12.60;8.00;;;20.20;53.70;;;;;;4983272;28;114650;-79
2023/09/08 05:12:52;;;;;;;12.30;8.95;;;20.30;53.60;;;;;;4967183;28;114384;-80
2023/09/08 05:15:21;;;;;;;13.65;9.05;;;20.30;53.40;;;;;;4983410;28;114279;-79
2023/09/08 05:17:51;;;;;;;14.00;9.25;;;20.40;53.20;;;;;;5016422;28;114944;-79
2023/09/08 05:20:20;;;;;;;10.93;9.07;;;20.50;53.00;;;;;;4983830;28;114807;-79
2023/09/08 05:22:47;;;;;;;11.35;8.60;;;20.50;52.90;;;;;;4951372;28;114218;-79
2023/09/08 05:25:15;;;;;;;13.15;9.63;;;20.60;52.80;;;;;;4983791;28;114390;-79
2023/09/08 05:27:42;;;;;;;12.25;9.55;;;20.70;52.60;;;;;;4983920;28;115107;-79
2023/09/08 05:30:09;;;;;;;14.68;9.48;;;20.80;52.50;;;;;;4982790;28;115340;-79
2023/09/08 05:32:37;;;;;;;14.02;9.32;;;20.80;52.40;;;;;;4981980;28;114266;-79
2023/09/08 05:35:05;;;;;;;12.20;7.85;;;20.80;52.40;;;;;;4983466;28;114043;-79
2023/09/08 05:37:32;;;;;;;11.75;9.38;;;20.90;52.40;;;;;;4998566;28;115466;-79
2023/09/08 05:39:59;;;;;;;11.77;9.60;;;20.90;52.30;;;;;;4983830;28;115214;-79
2023/09/08 05:42:26;;;;;;;14.27;9.55;;;21.00;52.30;;;;;;4984100;28;114156;-79
2023/09/08 05:44:54;;;;;;;16.13;9.98;;;21.10;52.10;;;;;;4999706;28;114189;-79
2023/09/08 05:47:22;;;;;;;15.77;9.85;;;21.20;52.10;;;;;;4999042;28;115281;-79
2023/09/08 05:49:49;;;;;;;12.77;8.82;;;21.20;52.00;;;;;;4949471;28;118006;-79
2023/09/08 05:52:16;;;;;;;13.13;9.05;;;21.30;52.00;;;;;;4983463;28;114418;-79
2023/09/08 05:54:45;;;;;;;12.93;9.40;;;21.50;51.80;;;;;;4983449;28;114316;-79
2023/09/08 05:57:12;;;;;;;11.88;8.45;;;21.60;51.60;;;;;;4965855;28;114847;-79
2023/09/08 05:59:39;;;;;;;13.40;8.85;;;21.70;51.40;;;;;;4982229;28;114725;-79
2023/09/08 06:02:06;;;;;;;16.33;9.45;;;21.80;51.00;;;;;;4982603;28;114405;-80
2023/09/08 06:04:34;;;;;;;15.73;9.52;;;21.90;50.90;;;;;;4982632;28;114550;-78
2023/09/08 06:07:01;;;;;;;14.07;9.02;;;22.10;50.80;;;;;;4983219;28;114902;-78
2023/09/08 06:09:30;;;;;;;12.85;9.00;;;22.20;50.70;;;;;;4982140;28;114627;-79
2023/09/08 06:11:57;;;;;;;17.75;9.30;;;22.30;50.40;;;;;;4982791;28;114285;-79
2023/09/08 06:14:24;;;;;;;15.93;9.90;;;22.30;50.30;;;;;;4965048;28;114325;-79
2023/09/08 06:16:51;;;;;;;18.00;10.25;;;22.40;50.10;;;;;;4981878;28;115036;-80
2023/09/08 06:19:19;;;;;;;16.58;10.35;;;22.60;50.00;;;;;;4966012;28;116007;-81
2023/09/08 06:21:46;;;;;;;15.32;10.18;;;22.70;49.80;;;;;;4982639;28;114486;-80
2023/09/08 06:24:13;;;;;;;18.10;10.05;;;22.80;49.70;;;;;;5000546;28;114499;-80
2023/09/08 06:26:42;;;;;;;14.70;9.98;;;22.90;49.30;;;;;;4982605;28;115352;-79
2023/09/08 06:29:10;;;;;;;14.35;8.77;;;23.00;49.00;;;;;;4981686;28;115924;-79
2023/09/08 06:31:37;;;;;;;14.68;8.98;;;23.10;48.80;;;;;;4981906;28;114228;-78
2023/09/08 06:34:04;;;;;;;14.27;8.88;;;23.20;48.70;;;;;;4983621;28;114240;-79
2023/09/08 06:36:32;;;;;;;15.02;9.35;;;23.30;48.70;;;;;;4984740;28;114882;-80
2023/09/08 06:38:59;;;;;;;14.35;9.02;;;23.40;48.40;;;;;;4997738;28;114232;-79
2023/09/08 06:41:28;;;;;;;14.57;8.02;;;23.50;48.10;;;;;;4952144;28;114702;-80
2023/09/08 06:43:57;;;;;;;11.93;8.07;;;23.50;48.00;;;;;;4983834;28;114308;-80
2023/09/08 06:46:27;;;;;;;13.13;8.18;;;23.60;48.10;;;;;;5015811;28;114250;-80
2023/09/08 06:48:54;;;;;;;10.93;8.25;;;23.70;47.80;;;;;;4983705;28;114682;-80
2023/09/08 06:51:21;;;;;;;10.30;7.80;;;23.70;47.50;;;;;;4981904;28;114144;-80
2023/09/08 06:54:00;;;;;;;9.30;7.40;;;23.70;47.80;;;;;;4982318;28;114472;-79
2023/09/08 06:56:35;;;;;;;10.02;7.13;;;23.80;47.70;;;;;;5015036;28;114953;-80
2023/09/08 06:59:02;;;;;;;10.52;7.78;;;23.80;47.10;;;;;;4965273;28;115311;-79
2023/09/08 07:01:30;;;;;;;13.18;8.07;;;23.80;47.30;;;;;;4965807;28;114648;-80
2023/09/08 07:03:57;;;;;;;10.10;7.68;;;23.80;47.30;;;;;;4983811;28;114101;-79
2023/09/08 07:06:26;;;;;;;14.18;9.77;;;23.80;47.60;;;;;;4981160;28;114725;-80
2023/09/08 07:08:54;;;;;;;14.75;8.35;;;23.90;47.50;;;;;;4982001;28;115121;-79
2023/09/08 07:11:22;;;;;;;15.65;7.65;;;23.90;47.50;;;;;;4982156;28;115191;-80
2023/09/08 07:13:49;;;;;;;14.48;8.68;;;23.90;47.40;;;;;;4982449;28;114583;-79
2023/09/08 07:16:16;;;;;;;12.73;7.32;;;24.00;47.20;;;;;;4980715;28;114876;-79
2023/09/08 07:18:44;;;;;;;14.77;8.50;;;23.90;47.40;;;;;;4981030;28;114756;-79
2023/09/08 07:21:11;;;;;;;12.20;8.23;;;24.00;47.50;;;;;;4982340;28;114343;-79
2023/09/08 07:23:39;;;;;;;12.82;8.93;;;24.00;47.10;;;;;;4982012;28;114473;-81
2023/09/08 07:26:08;;;;;;;13.23;8.95;;;24.00;47.10;;;;;;4965137;28;114912;-78
2023/09/08 07:28:35;;;;;;;14.88;8.23;;;24.00;47.10;;;;;;4983284;28;115261;-79
2023/09/08 07:31:08;;;;;;;16.48;8.93;;;24.00;47.60;;;;;;4981984;28;114559;-80
2023/09/08 07:33:39;;;;;;;13.13;8.57;;;24.00;47.50;;;;;;4982197;28;114173;-80
2023/09/08 07:36:07;;;;;;;14.77;8.35;;;24.10;46.90;;;;;;4964192;28;115591;-79
2023/09/08 07:38:34;;;;;;;13.38;8.88;;;24.20;46.80;;;;;;4997316;28;114679;-80
2023/09/08 07:41:02;;;;;;;14.65;8.75;;;24.10;46.90;;;;;;4949522;28;114198;-79
2023/09/08 07:43:30;;;;;;;11.40;8.27;;;24.20;46.80;;;;;;4981852;28;114343;-79
2023/09/08 07:45:57;;;;;;;11.73;7.50;;;24.30;47.00;;;;;;4980868;28;114965;-79
2023/09/08 07:48:25;;;;;;;13.68;7.93;;;24.30;46.80;;;;;;4982284;28;114670;-79
2023/09/08 07:50:52;;;;;;;13.63;8.55;;;24.40;46.40;;;;;;4998469;28;114486;-79
2023/09/08 07:53:19;;;;;;;14.15;7.88;;;24.40;46.10;;;;;;4982687;28;114271;-80
2023/09/08 07:55:46;;;;;;;10.82;7.20;;;24.40;46.10;;;;;;4983688;28;115487;-79
2023/09/08 07:58:13;;;;;;;11.18;7.38;;;24.50;45.90;;;;;;4984349;28;115340;-79
2023/09/08 08:00:41;;;;;;;12.48;7.68;;;24.50;46.00;;;;;;4990996;28;114027;-79
2023/09/08 08:03:08;;;;;;;11.88;6.63;;;24.60;45.60;;;;;;4985821;28;114163;-80
2023/09/08 08:05:35;;;;;;;10.45;6.55;;;24.70;45.70;;;;;;4984690;28;114943;-80
2023/09/08 08:08:03;;;;;;;12.35;7.15;;;24.70;45.70;;;;;;4985316;28;115614;-79
2023/09/08 08:10:30;;;;;;;10.00;6.78;;;24.80;46.40;;;;;;4985800;28;114272;-79
2023/09/08 08:12:57;;;;;;;9.30;6.78;;;24.80;45.90;;;;;;4985904;28;114020;-80
2023/09/08 08:15:34;;;;;;;10.18;7.32;;;24.90;45.60;;;;;;4966850;28;115326;-80
2023/09/08 08:18:04;;;;;;;18.40;6.97;;;25.00;45.30;;;;;;4983779;28;114919;-79
2023/09/08 08:20:34;;;;;;;9.93;6.85;;;25.00;45.40;;;;;;4985874;28;114345;-79
2023/09/08 08:23:03;;;;;;;8.43;6.72;;;25.10;45.20;;;;;;4969090;28;114119;-79
2023/09/08 08:25:31;;;;;;;8.30;6.05;;;25.10;45.90;;;;;;4983762;28;115356;-79
2023/09/08 08:27:59;;;;;;;9.10;7.28;;;25.30;45.80;;;;;;4984970;28;114571;-79
2023/09/08 08:30:27;;;;;;;9.98;7.05;;;25.40;45.50;;;;;;4985056;28;114331;-79
2023/09/08 08:32:54;;;;;;;8.63;6.85;;;25.50;44.80;;;;;;4985406;28;114377;-79
2023/09/08 08:35:21;;;;;;;11.23;6.72;;;25.50;44.50;;;;;;5006685;28;116450;-79
2023/09/08 08:37:48;;;;;;;10.35;7.25;;;25.50;44.50;;;;;;4985495;28;114328;-80
2023/09/08 08:40:15;;;;;;;9.68;6.93;;;25.60;44.70;;;;;;4986328;28;114377;-80
2023/09/08 08:42:44;;;;;;;12.45;6.70;;;25.60;44.20;;;;;;4985521;28;114372;-79
2023/09/08 08:45:11;;;;;;;8.00;6.32;;;25.70;44.10;;;;;;4983353;28;115024;-79
2023/09/08 08:47:39;;;;;;;9.93;6.28;;;25.80;44.30;;;;;;4983768;28;115093;-81
2023/09/08 08:50:10;;;;;;;9.75;6.68;;;25.80;44.40;;;;;;4985646;28;114522;-79
2023/09/08 08:52:37;;;;;;;8.88;5.72;;;25.80;43.30;;;;;;4988366;28;114304;-81
2023/09/08 08:55:05;;;;;;;7.88;5.75;;;25.80;43.20;;;;;;4971544;28;115182;-80
2023/09/08 08:57:34;;;;;;;10.02;6.53;;;25.80;42.40;;;;;;4984385;28;114694;-80
2023/09/08 09:00:06;;;;;;;9.30;6.45;;;25.80;42.70;;;;;;4985244;28;114135;-80
2023/09/08 09:02:33;;;;;;;8.60;6.13;;;25.90;42.10;;;;;;4984217;28;114374;-80
2023/09/08 09:05:00;;;;;;;14.85;7.55;;;25.90;42.10;;;;;;4984924;28;115675;-80
2023/09/08 09:07:27;;;;;;;10.63;6.03;;;25.90;41.90;;;;;;4983398;28;114540;-80
2023/09/08 09:09:54;;;;;;;10.57;6.60;;;25.90;42.20;;;;;;4983719;28;114296;-80
2023/09/08 09:12:22;;;;;;;9.40;6.45;;;25.90;41.50;;;;;;4967850;28;114435;-80
2023/09/08 09:14:53;;;;;;;10.38;6.30;;;25.90;41.80;;;;;;4983010;28;115367;-80
2023/09/08 09:17:21;;;;;;;8.88;6.10;;;25.80;41.60;;;;;;4982983;28;114650;-80
2023/09/08 09:19:48;;;;;;;9.35;6.55;;;25.80;41.90;;;;;;4984583;28;114430;-80
2023/09/08 09:22:18;;;;;;;9.48;6.53;;;25.80;41.90;;;;;;4984902;28;114244;-80
2023/09/08 09:24:45;;;;;;;10.45;6.47;;;25.80;42.00;;;;;;4982837;28;115126;-80
2023/09/08 09:27:13;;;;;;;8.23;5.80;;;25.90;41.10;;;;;;4982306;28;117351;-80
2023/09/08 09:29:48;;;;;;;10.48;7.20;;;26.00;41.20;;;;;;4983211;28;114124;-80
2023/09/08 09:32:16;;;;;;;7.82;5.57;;;26.10;41.10;;;;;;4984813;28;114159;-79
2023/09/08 09:34:50;;;;;;;9.35;5.78;;;26.20;40.70;;;;;;4982694;28;115874;-79
2023/09/08 09:37:18;;;;;;;11.20;6.28;;;26.30;40.10;;;;;;4982987;28;114708;-79
2023/09/08 09:40:07;;;;;;;6.60;5.75;;;26.30;40.10;;;;;;4984361;28;114218;-79
2023/09/08 09:42:34;;;;;;;8.38;5.95;;;26.30;40.50;;;;;;4983243;28;114142;-80
2023/09/08 09:45:02;;;;;;;10.10;6.07;;;26.30;40.20;;;;;;4982127;28;117536;-80
2023/09/08 09:47:29;;;;;;;9.55;6.50;;;26.40;40.20;;;;;;4982805;28;114685;-79
2023/09/08 09:49:58;;;;;;;7.63;6.13;;;26.40;40.20;;;;;;4966733;28;114151;-80
2023/09/08 09:52:30;;;;;;;9.68;5.82;;;26.50;40.20;;;;;;4983794;28;114198;-79
2023/09/08 09:54:58;;;;;;;9.13;6.35;;;26.40;40.30;;;;;;5015397;28;116754;-79
2023/09/08 09:57:25;;;;;;;9.07;7.10;;;26.40;40.50;;;;;;4983458;28;115137;-80
2023/09/08 09:59:53;;;;;;;8.23;6.05;;;26.40;40.50;;;;;;5016436;28;114142;-80
2023/09/08 10:02:21;;;;;;;9.68;6.88;;;26.50;40.50;;;;;;4984594;28;114253;-80
2023/09/08 10:04:49;;;;;;;9.02;6.20;;;26.30;40.50;;;;;;4966491;28;114797;-80
2023/09/08 10:07:17;;;;;;;8.77;6.20;;;26.20;40.90;;;;;;4983668;28;114650;-80
2023/09/08 10:09:44;;;;;;;10.90;6.63;;;26.10;41.20;;;;;;4982880;28;114359;-80
2023/09/08 10:12:15;;;;;;;8.77;6.47;;;26.00;41.50;;;;;;4985000;28;114137;-80
2023/09/08 10:14:43;;;;;;;9.02;6.82;;;26.00;41.30;;;;;;4982865;28;115053;-80
2023/09/08 10:17:14;;;;;;;10.43;6.57;;;26.00;41.30;;;;;;4982604;28;116746;-81
2023/09/08 10:19:43;;;;;;;8.27;6.10;;;26.10;41.00;;;;;;4984258;28;114425;-80
2023/09/08 10:22:15;;;;;;;9.85;6.35;;;26.10;41.30;;;;;;4983390;28;114488;-80
2023/09/08 10:24:42;;;;;;;9.88;6.70;;;26.00;41.50;;;;;;4965805;28;116442;-80
2023/09/08 10:27:10;;;;;;;9.00;5.90;;;25.90;41.60;;;;;;4982310;28;116434;-80
2023/09/08 10:29:40;;;;;;;8.05;6.55;;;26.00;41.60;;;;;;4983138;28;114150;-79
2023/09/08 10:32:08;;;;;;;9.93;6.82;;;26.00;41.30;;;;;;4984006;28;114118;-80
2023/09/08 10:34:36;;;;;;;8.13;6.25;;;26.00;41.20;;;;;;4981508;28;114943;-79
2023/09/08 10:37:03;;;;;;;10.50;6.60;;;26.00;41.60;;;;;;4981657;28;115910;-82
2023/09/08 10:39:35;;;;;;;7.97;6.30;;;26.10;41.90;;;;;;4965958;28;114369;-80
2023/09/08 10:42:32;;;;;;;9.50;6.25;;;26.20;41.40;;;;;;4982526;28;115389;-81
2023/09/08 10:45:04;;;;;;;8.50;6.30;;;26.30;41.50;;;;;;4969513;28;115486;-80
2023/09/08 10:47:34;;;;;;;9.23;6.95;;;26.30;41.40;;;;;;5014513;28;115936;-81
2023/09/08 10:50:02;;;;;;;11.93;6.90;;;26.30;41.70;;;;;;4985219;28;114200;-79
2023/09/08 10:52:32;;;;;;;8.07;6.43;;;26.40;41.10;;;;;;4993152;28;114274;-82
2023/09/08 10:55:01;;;;;;;9.02;6.38;;;26.40;40.80;;;;;;4985535;28;115286;-79
2023/09/08 10:57:31;;;;;;;9.23;6.32;;;26.40;40.50;;;;;;4982781;28;114728;-80
2023/09/08 11:00:05;;;;;;;7.82;6.43;;;26.40;40.30;;;;;;4985020;28;114056;-82
2023/09/08 11:02:42;;;;;;;9.68;6.22;;;26.50;40.50;;;;;;4989330;28;114876;-81
2023/09/08 11:05:13;;;;;;;7.70;6.15;;;26.50;40.70;;;;;;4981895;28;115364;-83
2023/09/08 11:07:41;;;;;;;8.65;6.20;;;26.40;40.60;;;;;;4981870;28;114814;-80
2023/09/08 11:10:09;;;;;;;7.57;5.90;;;26.20;40.90;;;;;;4966093;28;114561;-81
2023/09/08 11:12:36;;;;;;;10.05;6.60;;;26.10;41.10;;;;;;4982204;28;114625;-82
2023/09/08 11:15:05;;;;;;;10.73;6.55;;;26.10;41.50;;;;;;4982628;28;115081;-81
2023/09/08 11:17:34;;;;;;;10.43;6.88;;;26.00;41.60;;;;;;4982434;28;117282;-81
2023/09/08 11:20:08;;;;;;;8.75;6.95;;;26.10;41.80;;;;;;4982114;28;114547;-81
2023/09/08 11:22:36;;;;;;;7.45;5.90;;;26.20;41.70;;;;;;4966795;28;114246;-80
2023/09/08 11:25:04;;;;;;;10.88;6.47;;;26.30;41.10;;;;;;4982773;28;115314;-80
2023/09/08 11:27:31;;;;;;;9.57;6.32;;;26.20;41.40;;;;;;4966567;28;114609;-81
2023/09/08 11:29:58;;;;;;;9.45;6.47;;;26.20;41.30;;;;;;4986031;28;114333;-81
2023/09/08 11:32:32;;;;;;;8.52;6.40;;;26.10;40.90;;;;;;4969273;28;114371;-81
2023/09/08 11:35:07;;;;;;;9.00;6.25;;;26.10;40.90;;;;;;4970169;28;118679;-79
2023/09/08 11:37:38;;;;;;;8.35;5.85;;;26.10;41.10;;;;;;4984936;28;115107;-81
2023/09/08 11:40:09;;;;;;;6.93;5.78;;;26.10;40.80;;;;;;4986295;28;114094;-81
2023/09/08 11:42:37;;;;;;;8.52;6.03;;;26.10;41.30;;;;;;4970576;28;114118;-81
2023/09/08 11:45:04;;;;;;;7.85;6.00;;;26.20;41.60;;;;;;4984822;28;114856;-81
2023/09/08 11:47:32;;;;;;;8.35;6.50;;;26.30;41.40;;;;;;4968554;28;114685;-80
2023/09/08 11:49:59;;;;;;;7.70;6.68;;;26.40;41.30;;;;;;4985033;28;114204;-81
2023/09/08 11:52:26;;;;;;;10.57;7.25;;;26.50;41.20;;;;;;4969588;28;114250;-81
2023/09/08 11:54:53;;;;;;;9.82;6.80;;;26.50;41.00;;;;;;5001327;28;116149;-80
2023/09/08 11:57:33;;;;;;;7.90;5.97;;;26.60;41.00;;;;;;4985751;28;114641;-80
2023/09/08 12:00:01;;;;;;;9.23;5.97;;;26.60;40.40;;;;;;4968982;28;114307;-80
2023/09/08 12:02:33;;;;;;;8.57;6.05;;;26.40;40.60;;;;;;4969176;28;114432;-80
2023/09/08 12:05:01;;;;;;;10.35;6.82;;;26.30;40.90;;;;;;4984967;28;115539;-81
2023/09/08 12:07:29;;;;;;;8.45;5.95;;;26.20;41.10;;;;;;4984679;28;114921;-81
2023/09/08 12:09:58;;;;;;;8.13;6.15;;;26.20;40.40;;;;;;4986805;28;113906;-81
2023/09/08 12:12:26;;;;;;;7.22;5.55;;;26.20;40.50;;;;;;4986226;28;114207;-81
2023/09/08 12:14:53;;;;;;;7.22;5.57;;;26.30;40.90;;;;;;4966394;28;118618;-82
2023/09/08 12:17:24;;;;;;;10.30;6.72;;;26.30;40.80;;;;;;4985126;28;114606;-81
2023/09/08 12:19:52;;;;;;;8.85;6.03;;;26.30;40.90;;;;;;4984705;28;114594;-81
2023/09/08 12:22:22;;;;;;;8.82;6.25;;;26.30;40.80;;;;;;5000741;28;114433;-80
2023/09/08 12:24:59;;;;;;;8.45;6.05;;;26.30;40.80;;;;;;4984821;28;115545;-79
2023/09/08 12:27:26;;;;;;;7.20;6.25;;;26.50;40.70;;;;;;4984879;28;115121;-80
2023/09/08 12:29:58;;;;;;;7.40;5.95;;;26.50;40.60;;;;;;4984016;28;114330;-80
2023/09/08 12:32:30;;;;;;;9.32;6.22;;;26.60;40.60;;;;;;4985782;28;114481;-80
2023/09/08 12:34:58;;;;;;;7.50;6.28;;;26.60;40.70;;;;;;4984908;28;115427;-80